Time;durP1;ratioP1;P1;durP2;ratioP2;P2;SDS_P1;SDS_P2;PMS_P1;PMS_P2;Temp;Humidity;BMP_temperature;BMP_pressure;BME280_temperature;BME280_humidity;BME280_pressure;Samples;Min_cycle;Max_cycle;Signal;HPM_P1;HPM_P2
2022/01/11 00:01:01;;;;;;;16.63;9.52;;;2.00;99.90;;;;;;4174175;28;20041;-66
2022/01/11 00:03:05;;;;;;;15.93;9.70;;;2.00;99.90;;;;;;4177778;28;20124;-66
2022/01/11 00:05:06;;;;;;;16.30;9.45;;;2.00;99.90;;;;;;4172601;28;20033;-66
2022/01/11 00:07:10;;;;;;;18.65;10.23;;;2.00;99.90;;;;;;4176906;28;20179;-66
2022/01/11 00:09:29;;;;;;;24.15;11.90;;;1.90;99.90;;;;;;4170904;28;20041;-66
2022/01/11 00:11:30;;;;;;;29.23;14.45;;;1.90;99.90;;;;;;4171012;28;20040;-66
2022/01/11 00:13:39;;;;;;;32.53;14.50;;;1.90;99.90;;;;;;4173952;28;20449;-66
2022/01/11 00:15:40;;;;;;;32.00;15.50;;;1.90;99.90;;;;;;4173771;28;20080;-66
2022/01/11 00:17:40;;;;;;;30.23;16.23;;;1.80;99.90;;;;;;4168766;28;20033;-66
2022/01/11 00:19:43;;;;;;;31.20;16.45;;;1.80;99.90;;;;;;4177353;28;20465;-66
2022/01/11 00:21:48;;;;;;;29.08;15.00;;;1.70;99.90;;;;;;4173109;28;20428;-66
2022/01/11 00:24:49;;;;;;;33.08;16.65;;;1.70;99.90;;;;;;4173646;28;20104;-67
2022/01/11 00:26:19;;;;;;;30.25;16.42;;;1.70;99.90;;;;;;4150540;28;20491;-67
2022/01/11 00:28:21;;;;;;;32.28;16.67;;;1.70;99.90;;;;;;4172767;28;20116;-66
2022/01/11 00:30:24;;;;;;;33.55;16.17;;;1.70;99.90;;;;;;4175455;28;20037;-66
2022/01/11 00:32:38;;;;;;;32.22;16.60;;;1.70;99.90;;;;;;4177746;28;20065;-66
2022/01/11 00:34:49;;;;;;;30.38;16.05;;;1.70;99.90;;;;;;4169990;28;20038;-66
2022/01/11 00:36:50;;;;;;;29.80;16.55;;;1.70;99.90;;;;;;4171461;28;20138;-66
2022/01/11 00:38:51;;;;;;;30.40;17.02;;;1.60;99.90;;;;;;4172416;28;20121;-66
2022/01/11 00:40:56;;;;;;;30.60;15.93;;;1.70;99.90;;;;;;4178467;28;20036;-66
2022/01/11 00:42:59;;;;;;;34.47;17.77;;;1.70;99.90;;;;;;4171596;28;20045;-66
2022/01/11 00:45:01;;;;;;;33.53;17.42;;;1.60;99.90;;;;;;4175445;28;20340;-66
2022/01/11 00:47:02;;;;;;;33.80;17.95;;;1.60;99.90;;;;;;4172598;28;20108;-66
2022/01/11 00:49:03;;;;;;;29.17;15.85;;;1.60;99.90;;;;;;4168569;28;20048;-66
2022/01/11 00:51:04;;;;;;;31.23;17.20;;;1.70;99.90;;;;;;4180464;28;20052;-67
2022/01/11 00:53:05;;;;;;;31.15;16.85;;;1.70;99.90;;;;;;4169478;28;20128;-66
2022/01/11 00:55:07;;;;;;;36.13;18.15;;;1.70;99.90;;;;;;4172062;28;20040;-66
2022/01/11 00:57:07;;;;;;;32.60;17.73;;;1.80;99.90;;;;;;4177911;28;20057;-66
2022/01/11 00:59:08;;;;;;;30.48;16.77;;;1.80;99.90;;;;;;4171450;28;20091;-66
2022/01/11 01:01:08;;;;;;;33.25;16.98;;;1.80;99.90;;;;;;4174128;28;20103;-66
2022/01/11 01:03:09;;;;;;;33.28;18.08;;;1.90;99.90;;;;;;4167953;28;20079;-66
2022/01/11 01:05:10;;;;;;;37.22;19.08;;;1.90;99.90;;;;;;4170101;28;20041;-68
2022/01/11 01:07:11;;;;;;;33.17;18.17;;;1.90;99.90;;;;;;4178807;28;20487;-66
2022/01/11 01:09:11;;;;;;;30.20;16.42;;;1.90;99.90;;;;;;4170220;28;20420;-66
2022/01/11 01:11:12;;;;;;;30.70;17.40;;;1.90;99.90;;;;;;4175928;28;20033;-66
2022/01/11 01:13:22;;;;;;;33.90;17.92;;;1.90;99.90;;;;;;4175592;28;20091;-66
2022/01/11 01:15:24;;;;;;;32.05;16.65;;;1.90;99.90;;;;;;4158447;28;20045;-66
2022/01/11 01:17:26;;;;;;;34.28;18.17;;;1.90;99.90;;;;;;4178012;28;20448;-66
2022/01/11 01:19:27;;;;;;;33.72;17.83;;;1.80;99.90;;;;;;4173529;28;20508;-66
2022/01/11 01:21:30;;;;;;;32.90;17.88;;;1.90;99.90;;;;;;4176759;28;20033;-66
2022/01/11 01:23:31;;;;;;;29.92;15.63;;;1.90;99.90;;;;;;4161879;28;20033;-66
2022/01/11 01:25:31;;;;;;;27.80;15.77;;;2.00;99.90;;;;;;4169772;28;20060;-66
2022/01/11 01:27:32;;;;;;;30.33;16.90;;;2.00;99.90;;;;;;4177625;28;20087;-66
2022/01/11 01:29:33;;;;;;;31.83;17.95;;;2.00;99.90;;;;;;4174805;28;20040;-66
2022/01/11 01:31:34;;;;;;;33.08;16.55;;;1.90;99.90;;;;;;4170598;28;20067;-66
2022/01/11 01:33:35;;;;;;;29.63;16.50;;;2.00;99.90;;;;;;4177561;28;20063;-66
2022/01/11 01:35:50;;;;;;;34.25;17.83;;;2.00;99.90;;;;;;4169974;28;20033;-66
2022/01/11 01:37:51;;;;;;;32.97;17.45;;;2.10;99.90;;;;;;4172731;28;20105;-67
2022/01/11 01:39:51;;;;;;;30.50;16.50;;;2.10;99.90;;;;;;4170015;28;20037;-66
2022/01/11 01:41:52;;;;;;;29.77;16.80;;;2.10;99.90;;;;;;4177321;28;20040;-67
2022/01/11 01:43:56;;;;;;;29.88;15.45;;;2.10;99.90;;;;;;4171560;28;20033;-67
2022/01/11 01:46:00;;;;;;;34.15;18.02;;;2.20;99.90;;;;;;4167749;28;20499;-66
2022/01/11 01:48:02;;;;;;;29.88;17.35;;;2.10;99.90;;;;;;4176438;28;20037;-66
2022/01/11 01:50:05;;;;;;;32.08;15.95;;;2.10;99.90;;;;;;4166551;28;20048;-67
2022/01/11 01:52:07;;;;;;;28.50;16.30;;;2.10;99.90;;;;;;4171060;28;20044;-66
2022/01/11 01:54:08;;;;;;;27.98;15.82;;;2.10;99.90;;;;;;4172721;28;20042;-66
2022/01/11 01:56:09;;;;;;;30.02;15.43;;;2.10;99.90;;;;;;4170796;28;20045;-66
2022/01/11 01:58:10;;;;;;;28.48;16.05;;;2.10;99.90;;;;;;4170410;28;20501;-66
2022/01/11 02:00:12;;;;;;;28.10;15.90;;;2.10;99.90;;;;;;4166178;28;20048;-67
2022/01/11 02:02:14;;;;;;;38.25;17.83;;;2.10;99.90;;;;;;4172392;28;20052;-66
2022/01/11 02:04:17;;;;;;;32.25;17.38;;;2.10;99.90;;;;;;4175073;28;20033;-66
2022/01/11 02:06:20;;;;;;;29.27;15.32;;;2.10;99.90;;;;;;4172679;28;20037;-66
2022/01/11 02:08:21;;;;;;;33.17;16.27;;;1.90;99.90;;;;;;4173747;28;20033;-66
2022/01/11 02:10:21;;;;;;;30.13;15.77;;;1.90;99.90;;;;;;4166950;28;20231;-66
2022/01/11 02:12:24;;;;;;;30.92;16.15;;;1.90;99.90;;;;;;4173698;28;20124;-67
2022/01/11 02:14:26;;;;;;;28.70;15.27;;;2.00;99.90;;;;;;4168479;28;20191;-66
2022/01/11 02:16:27;;;;;;;27.27;14.75;;;2.00;99.90;;;;;;4171611;28;20289;-66
2022/01/11 02:18:27;;;;;;;32.05;16.95;;;2.00;99.90;;;;;;4174051;28;20060;-66
2022/01/11 02:20:28;;;;;;;29.55;16.05;;;1.90;99.90;;;;;;4175396;28;20033;-66
2022/01/11 02:22:29;;;;;;;31.42;16.15;;;2.00;99.90;;;;;;4170028;28;20033;-66
2022/01/11 02:24:32;;;;;;;31.52;15.93;;;2.00;99.90;;;;;;4170824;28;20064;-66
2022/01/11 02:26:33;;;;;;;27.88;14.13;;;1.90;99.90;;;;;;4162761;28;20443;-66
2022/01/11 02:28:34;;;;;;;25.20;13.75;;;2.00;99.90;;;;;;4170509;28;20037;-66
2022/01/11 02:30:35;;;;;;;28.88;15.55;;;1.90;99.90;;;;;;4175639;28;20116;-66
2022/01/11 02:32:51;;;;;;;28.58;15.50;;;1.90;99.90;;;;;;4175997;28;20037;-67
2022/01/11 02:34:51;;;;;;;30.75;14.88;;;1.80;99.90;;;;;;4176218;28;20083;-67
2022/01/11 02:36:52;;;;;;;28.52;15.00;;;1.80;99.90;;;;;;4168449;28;20087;-67
2022/01/11 02:38:54;;;;;;;33.05;14.85;;;1.70;99.90;;;;;;4176995;28;20033;-67
2022/01/11 02:40:55;;;;;;;26.83;13.47;;;1.60;99.90;;;;;;4164444;28;20086;-67
2022/01/11 02:42:55;;;;;;;37.95;16.02;;;1.50;99.90;;;;;;4167759;28;20399;-66
2022/01/11 02:44:56;;;;;;;25.48;13.60;;;1.50;99.90;;;;;;4172132;28;20473;-67
2022/01/11 02:46:57;;;;;;;34.75;14.77;;;1.40;99.90;;;;;;4172258;28;20533;-67
2022/01/11 02:48:57;;;;;;;28.88;14.88;;;1.40;99.90;;;;;;4175720;28;20468;-67
2022/01/11 02:50:58;;;;;;;26.48;14.07;;;1.40;99.90;;;;;;4167388;28;20049;-67
2022/01/11 02:52:59;;;;;;;29.13;14.65;;;1.50;99.90;;;;;;4167326;28;20134;-67
2022/01/11 02:55:00;;;;;;;34.90;16.65;;;1.40;99.90;;;;;;4166107;28;20484;-66
2022/01/11 02:57:00;;;;;;;33.72;15.48;;;1.40;99.90;;;;;;4170818;28;20051;-66
2022/01/11 02:59:02;;;;;;;32.17;16.52;;;1.40;99.90;;;;;;4171434;28;20044;-66
2022/01/11 03:01:03;;;;;;;30.20;14.48;;;1.40;99.90;;;;;;4172982;28;20041;-66
2022/01/11 03:03:17;;;;;;;29.33;14.23;;;1.40;99.90;;;;;;4174333;28;20041;-66
2022/01/11 03:05:18;;;;;;;31.25;14.85;;;1.50;99.90;;;;;;4174183;28;20033;-67
2022/01/11 03:07:22;;;;;;;33.40;15.40;;;1.50;99.90;;;;;;4170088;28;20404;-66
2022/01/11 03:09:24;;;;;;;27.33;13.95;;;1.50;99.90;;;;;;4178424;28;20057;-67
2022/01/11 03:11:31;;;;;;;32.70;16.45;;;1.60;99.90;;;;;;4175643;28;20060;-67
2022/01/11 03:13:35;;;;;;;31.88;16.02;;;1.60;99.90;;;;;;4168350;28;20026;-67
2022/01/11 03:15:40;;;;;;;29.23;14.73;;;1.60;99.90;;;;;;4175269;28;20087;-66
2022/01/11 03:17:40;;;;;;;29.75;15.27;;;1.60;99.90;;;;;;4166360;28;20076;-66
2022/01/11 03:19:41;;;;;;;30.25;14.32;;;1.70;99.90;;;;;;4170531;28;20057;-66
2022/01/11 03:21:42;;;;;;;28.77;14.52;;;1.70;99.90;;;;;;4172503;28;20098;-66
2022/01/11 03:23:42;;;;;;;31.42;15.40;;;1.70;99.90;;;;;;4173961;28;20041;-67
2022/01/11 03:25:44;;;;;;;31.65;14.80;;;1.70;99.90;;;;;;4172628;28;20494;-66
2022/01/11 03:27:45;;;;;;;30.77;15.00;;;1.80;99.90;;;;;;4169178;28;20464;-66
2022/01/11 03:29:45;;;;;;;35.42;17.77;;;1.80;99.90;;;;;;4174407;28;20043;-66
2022/01/11 03:31:46;;;;;;;36.55;17.00;;;1.80;99.90;;;;;;4167880;28;20033;-66
2022/01/11 03:33:47;;;;;;;33.50;16.13;;;1.80;99.90;;;;;;4175548;28;20045;-66
2022/01/11 03:35:48;;;;;;;38.67;17.42;;;1.80;99.90;;;;;;4170315;28;20037;-66
2022/01/11 03:37:49;;;;;;;35.20;16.13;;;1.90;99.90;;;;;;4176298;28;20042;-66
2022/01/11 03:39:50;;;;;;;39.13;18.02;;;1.80;99.90;;;;;;4173560;28;20041;-66
2022/01/11 03:41:51;;;;;;;34.72;16.98;;;1.90;99.90;;;;;;4177696;28;20047;-69
2022/01/11 03:43:51;;;;;;;36.92;17.95;;;1.90;99.90;;;;;;4174619;28;20043;-66
2022/01/11 03:45:52;;;;;;;40.42;17.52;;;2.00;99.90;;;;;;4173846;28;20121;-66
2022/01/11 03:47:56;;;;;;;40.58;18.00;;;1.90;99.90;;;;;;4174825;28;20396;-67
2022/01/11 03:49:56;;;;;;;39.05;18.40;;;1.90;99.90;;;;;;4168936;28;20084;-67
2022/01/11 03:51:57;;;;;;;50.45;21.75;;;1.90;99.90;;;;;;4175718;28;20033;-67
2022/01/11 03:54:10;;;;;;;51.17;21.50;;;1.90;99.90;;;;;;4170374;28;20041;-67
2022/01/11 03:56:21;;;;;;;50.25;22.60;;;1.90;99.90;;;;;;4170272;28;20092;-66
2022/01/11 03:58:25;;;;;;;54.53;22.70;;;1.90;99.90;;;;;;4177073;28;20039;-67
2022/01/11 04:00:26;;;;;;;54.28;23.23;;;1.90;99.90;;;;;;4174612;28;20073;-66
2022/01/11 04:02:27;;;;;;;53.40;23.00;;;1.70;99.90;;;;;;4174703;28;20078;-67
2022/01/11 04:04:28;;;;;;;53.30;22.35;;;1.80;99.90;;;;;;4170968;28;20045;-67
2022/01/11 04:06:28;;;;;;;53.47;22.35;;;1.80;99.90;;;;;;4181338;28;20148;-67
2022/01/11 04:08:29;;;;;;;48.17;21.38;;;1.90;99.90;;;;;;4171422;28;20098;-67
2022/01/11 04:10:29;;;;;;;47.15;22.73;;;1.90;99.90;;;;;;4175575;28;20125;-66
2022/01/11 04:12:30;;;;;;;48.00;21.77;;;1.90;99.90;;;;;;4170760;28;20045;-66
2022/01/11 04:14:31;;;;;;;58.78;24.50;;;1.90;99.90;;;;;;4171693;28;20033;-67
2022/01/11 04:16:31;;;;;;;51.38;22.83;;;1.90;99.90;;;;;;4180337;28;20052;-66
2022/01/11 04:18:32;;;;;;;53.05;22.88;;;2.00;99.90;;;;;;4175327;28;20048;-67
2022/01/11 04:20:32;;;;;;;49.30;20.83;;;1.90;99.90;;;;;;4170600;28;20044;-66
2022/01/11 04:22:33;;;;;;;50.80;21.30;;;2.00;99.90;;;;;;4172786;28;20380;-66
2022/01/11 04:24:34;;;;;;;51.42;22.20;;;2.00;99.90;;;;;;4175125;28;20033;-66
2022/01/11 04:26:34;;;;;;;54.92;22.13;;;2.00;99.90;;;;;;4176649;28;20037;-66
2022/01/11 04:28:35;;;;;;;52.58;21.92;;;2.00;99.90;;;;;;4169292;28;20045;-67
2022/01/11 04:30:37;;;;;;;56.42;24.55;;;2.10;99.90;;;;;;4179048;28;20115;-66
2022/01/11 04:32:38;;;;;;;49.80;23.00;;;2.00;99.90;;;;;;4177967;28;20419;-66
2022/01/11 04:34:38;;;;;;;48.75;22.13;;;1.80;99.90;;;;;;4169523;28;20063;-67
2022/01/11 04:36:39;;;;;;;48.15;22.50;;;1.80;99.90;;;;;;4172632;28;20431;-66
2022/01/11 04:38:40;;;;;;;44.50;20.42;;;1.70;99.90;;;;;;4170851;28;20060;-66
2022/01/11 04:42:51;;;;;;;46.10;20.73;;;1.70;99.90;;;;;;3709264;22;20179;-64
2022/01/11 04:44:52;;;;;;;41.85;20.50;;;1.60;99.90;;;;;;4171748;28;20037;-64
2022/01/11 04:46:52;;;;;;;43.63;20.88;;;1.60;99.90;;;;;;4180166;28;20095;-64
2022/01/11 04:48:54;;;;;;;39.45;18.92;;;1.50;99.90;;;;;;4163329;28;20043;-65
2022/01/11 04:50:54;;;;;;;43.85;21.15;;;1.60;99.90;;;;;;4163008;28;20046;-64
2022/01/11 04:52:56;;;;;;;46.05;23.10;;;1.50;99.90;;;;;;4144546;28;20034;-65
2022/01/11 04:54:56;;;;;;;48.22;21.13;;;1.60;99.90;;;;;;4170045;28;20034;-65
2022/01/11 04:56:57;;;;;;;41.60;19.80;;;1.60;99.90;;;;;;4160509;28;20083;-65
2022/01/11 04:58:58;;;;;;;51.65;23.45;;;1.60;99.90;;;;;;4168692;28;20041;-64
2022/01/11 05:00:58;;;;;;;51.72;23.75;;;1.60;99.90;;;;;;4169323;28;20044;-63
2022/01/11 05:02:59;;;;;;;52.60;24.08;;;1.60;99.90;;;;;;4182554;28;20480;-64
2022/01/11 05:05:00;;;;;;;56.38;24.60;;;1.70;99.90;;;;;;4174166;28;20037;-65
2022/01/11 05:07:00;;;;;;;48.75;22.05;;;1.60;99.90;;;;;;4159781;28;20037;-65
2022/01/11 05:09:02;;;;;;;46.03;20.00;;;1.60;99.90;;;;;;4178108;28;20044;-64
2022/01/11 05:11:02;;;;;;;46.40;21.13;;;1.70;99.90;;;;;;4172041;28;20040;-63
2022/01/11 05:13:03;;;;;;;39.63;19.60;;;1.60;99.90;;;;;;4179984;28;20415;-64
2022/01/11 05:15:04;;;;;;;52.03;21.95;;;1.60;99.90;;;;;;4176139;28;20041;-64
2022/01/11 05:17:05;;;;;;;45.70;21.83;;;1.60;99.90;;;;;;4176761;28;20052;-63
2022/01/11 05:19:12;;;;;;;45.60;20.65;;;1.50;99.90;;;;;;4176466;28;20459;-63
2022/01/11 05:21:12;;;;;;;42.58;20.58;;;1.60;99.90;;;;;;4179735;28;20467;-63
2022/01/11 05:23:14;;;;;;;42.78;19.45;;;1.50;99.90;;;;;;4181047;28;20040;-65
2022/01/11 05:25:15;;;;;;;39.90;20.07;;;1.50;99.90;;;;;;4179166;28;20068;-64
2022/01/11 05:27:16;;;;;;;42.45;20.17;;;1.40;99.90;;;;;;4179184;28;20094;-63
2022/01/11 05:29:16;;;;;;;41.10;18.88;;;1.50;99.90;;;;;;4181328;28;20045;-63
2022/01/11 05:31:17;;;;;;;37.88;18.02;;;1.50;99.90;;;;;;4178926;28;20087;-63
2022/01/11 05:33:17;;;;;;;44.03;19.00;;;1.50;99.90;;;;;;4187035;28;20049;-63
2022/01/11 05:35:20;;;;;;;43.65;20.95;;;1.50;99.90;;;;;;4181210;28;20037;-63
2022/01/11 05:37:21;;;;;;;44.58;20.55;;;1.50;99.90;;;;;;4178293;28;20506;-63
2022/01/11 05:39:21;;;;;;;39.00;19.02;;;1.50;99.90;;;;;;4181639;28;20037;-63
2022/01/11 05:41:22;;;;;;;42.92;20.10;;;1.50;99.90;;;;;;4180865;28;20441;-63
2022/01/11 05:43:23;;;;;;;39.80;19.90;;;1.40;99.90;;;;;;4186937;28;20052;-63
2022/01/11 05:45:25;;;;;;;43.00;19.80;;;1.30;99.90;;;;;;4184422;28;20675;-63
2022/01/11 05:47:26;;;;;;;42.70;19.73;;;1.40;99.90;;;;;;4177258;28;20868;-63
2022/01/11 05:49:26;;;;;;;45.45;21.02;;;1.40;99.90;;;;;;4186292;28;20132;-63
2022/01/11 05:51:27;;;;;;;40.45;18.95;;;1.50;99.90;;;;;;4179799;28;20479;-62
2022/01/11 05:53:28;;;;;;;49.45;22.55;;;1.50;99.90;;;;;;4180930;28;20043;-63
2022/01/11 05:55:28;;;;;;;44.10;21.63;;;1.40;99.90;;;;;;4177920;28;20087;-63
2022/01/11 05:57:29;;;;;;;48.22;22.00;;;1.40;99.90;;;;;;4173277;28;20067;-63
2022/01/11 05:59:30;;;;;;;47.08;21.33;;;1.40;99.90;;;;;;4179616;28;20194;-63
2022/01/11 06:01:33;;;;;;;42.10;20.95;;;1.40;99.90;;;;;;4178170;28;20446;-63
2022/01/11 06:03:34;;;;;;;41.75;19.13;;;1.30;99.90;;;;;;4178789;28;20055;-63
2022/01/11 06:05:38;;;;;;;38.20;19.00;;;1.30;99.90;;;;;;4178879;28;20064;-63
2022/01/11 06:07:39;;;;;;;38.95;19.55;;;1.30;99.90;;;;;;4175255;28;20033;-63
2022/01/11 06:09:40;;;;;;;39.78;18.35;;;1.30;99.90;;;;;;4179520;28;20049;-63
2022/01/11 06:11:41;;;;;;;43.75;20.98;;;1.30;99.90;;;;;;4179670;28;20062;-63
2022/01/11 06:13:41;;;;;;;41.97;19.52;;;1.40;99.90;;;;;;4165034;28;20063;-62
2022/01/11 06:15:42;;;;;;;43.97;20.95;;;1.40;99.90;;;;;;4177831;28;20503;-63
2022/01/11 06:17:42;;;;;;;39.92;20.20;;;1.30;99.90;;;;;;4178054;28;20140;-62
2022/01/11 06:19:43;;;;;;;39.80;20.00;;;1.40;99.90;;;;;;4180187;28;20044;-65
2022/01/11 06:21:44;;;;;;;39.15;18.55;;;1.20;99.90;;;;;;4166367;28;20133;-63
2022/01/11 06:23:47;;;;;;;38.53;19.30;;;1.20;99.90;;;;;;4177155;28;20049;-63
2022/01/11 06:25:48;;;;;;;41.55;20.25;;;1.20;99.90;;;;;;4178347;28;20070;-63
2022/01/11 06:27:49;;;;;;;36.85;17.77;;;1.30;99.90;;;;;;4175778;28;20045;-63
2022/01/11 06:29:49;;;;;;;65.25;20.20;;;1.20;99.90;;;;;;4174375;28;20037;-63
2022/01/11 06:31:50;;;;;;;45.85;20.67;;;1.20;99.90;;;;;;4178735;28;20065;-63
2022/01/11 06:33:51;;;;;;;35.05;17.73;;;1.20;99.90;;;;;;4179138;28;20040;-63
2022/01/11 06:35:52;;;;;;;37.33;17.45;;;1.20;99.90;;;;;;4184073;28;20048;-63
2022/01/11 06:37:53;;;;;;;38.10;18.65;;;1.20;99.90;;;;;;4178734;28;20997;-63
2022/01/11 06:39:54;;;;;;;38.47;18.42;;;1.20;99.90;;;;;;4182304;28;20099;-63
2022/01/11 06:41:55;;;;;;;43.15;19.95;;;1.30;99.90;;;;;;4186945;28;20490;-63
2022/01/11 06:43:55;;;;;;;48.08;20.00;;;1.30;99.90;;;;;;4163630;28;20562;-63
2022/01/11 06:45:56;;;;;;;44.63;20.27;;;1.30;99.90;;;;;;4183790;28;20124;-63
2022/01/11 06:47:57;;;;;;;41.97;19.70;;;1.30;99.90;;;;;;4178116;28;20502;-63
2022/01/11 06:49:57;;;;;;;43.63;18.67;;;1.40;99.90;;;;;;4182271;28;20116;-63
2022/01/11 06:51:58;;;;;;;42.22;18.83;;;1.40;99.90;;;;;;4182261;28;20039;-63
2022/01/11 06:53:59;;;;;;;45.13;19.92;;;1.40;99.90;;;;;;4182694;28;20040;-63
2022/01/11 06:55:59;;;;;;;41.08;18.08;;;1.40;99.90;;;;;;4182167;28;20045;-63
2022/01/11 06:58:00;;;;;;;47.72;20.45;;;1.50;99.90;;;;;;4179129;28;20391;-63
2022/01/11 07:00:01;;;;;;;49.33;22.05;;;1.50;99.90;;;;;;4163125;28;20037;-63
2022/01/11 07:02:02;;;;;;;46.00;20.92;;;1.50;99.90;;;;;;4181858;28;20041;-63
2022/01/11 07:04:03;;;;;;;48.22;20.67;;;1.50;99.90;;;;;;4180631;28;20033;-63
2022/01/11 07:06:04;;;;;;;52.85;22.27;;;1.60;99.90;;;;;;4185437;28;20090;-63
2022/01/11 07:08:04;;;;;;;52.30;23.75;;;1.50;99.90;;;;;;4179407;28;20048;-63
2022/01/11 07:10:06;;;;;;;46.10;20.95;;;1.50;99.90;;;;;;4184682;28;20040;-66
2022/01/11 07:12:07;;;;;;;44.97;19.67;;;1.50;99.90;;;;;;4181236;28;20126;-63
2022/01/11 07:14:07;;;;;;;42.63;19.73;;;1.40;99.90;;;;;;4161670;28;20427;-62
2022/01/11 07:16:08;;;;;;;40.58;19.15;;;1.40;99.90;;;;;;4184941;28;20055;-63
2022/01/11 07:18:10;;;;;;;41.88;19.30;;;1.40;99.90;;;;;;4180718;28;20388;-62
2022/01/11 07:20:11;;;;;;;42.42;20.02;;;1.30;99.90;;;;;;4183889;28;20036;-65
2022/01/11 07:22:12;;;;;;;46.13;20.50;;;1.30;99.90;;;;;;4181167;28;20040;-63
2022/01/11 07:24:14;;;;;;;43.78;20.42;;;1.30;99.90;;;;;;4190625;28;20032;-63
2022/01/11 07:26:15;;;;;;;;;;;1.30;99.90;;;;;;4183821;28;20063;-62
2022/01/11 07:28:15;;;;;;;47.22;20.15;;;1.30;99.90;;;;;;4181998;28;19916;-63
2022/01/11 07:30:16;;;;;;;50.92;22.38;;;1.30;99.90;;;;;;4182558;28;20437;-65
2022/01/11 07:32:17;;;;;;;48.47;21.00;;;1.30;99.90;;;;;;4185362;28;20047;-64
2022/01/11 07:34:18;;;;;;;48.28;21.65;;;1.40;99.90;;;;;;4185170;28;20453;-64
2022/01/11 07:36:19;;;;;;;51.50;22.27;;;1.40;99.90;;;;;;4178584;28;20048;-63
2022/01/11 07:38:19;;;;;;;44.70;20.23;;;1.30;99.90;;;;;;4180913;28;20505;-63
2022/01/11 07:40:20;;;;;;;48.50;21.48;;;1.40;99.90;;;;;;4182440;28;20064;-63
2022/01/11 07:42:21;;;;;;;43.95;19.23;;;1.40;99.90;;;;;;4184636;28;20060;-63
2022/01/11 07:44:22;;;;;;;44.40;20.33;;;1.40;99.90;;;;;;4187737;28;20064;-63
2022/01/11 07:46:24;;;;;;;39.40;19.40;;;1.40;99.90;;;;;;4180177;28;20703;-63
2022/01/11 07:48:24;;;;;;;49.45;20.17;;;1.40;99.90;;;;;;4184958;28;20037;-64
2022/01/11 07:50:25;;;;;;;42.22;19.55;;;1.40;99.90;;;;;;4182796;28;20400;-63
2022/01/11 07:52:26;;;;;;;40.58;18.88;;;1.40;99.90;;;;;;4187064;28;20036;-63
2022/01/11 07:54:26;;;;;;;41.13;19.17;;;1.40;99.90;;;;;;4187428;28;20052;-63
2022/01/11 07:56:27;;;;;;;40.80;18.98;;;1.40;99.90;;;;;;4185515;28;20130;-63
2022/01/11 07:58:28;;;;;;;41.38;19.45;;;1.30;99.90;;;;;;4182702;28;20052;-63
2022/01/11 08:00:28;;;;;;;43.00;17.98;;;1.30;99.90;;;;;;4182835;28;20047;-63
2022/01/11 08:02:29;;;;;;;40.67;18.73;;;1.40;99.90;;;;;;4184032;28;20028;-63
2022/01/11 08:04:31;;;;;;;37.22;17.30;;;1.40;99.90;;;;;;4189972;28;20044;-63
2022/01/11 08:06:33;;;;;;;41.55;18.95;;;1.50;99.90;;;;;;4185674;28;20048;-63
2022/01/11 08:08:33;;;;;;;37.78;18.20;;;1.50;99.90;;;;;;4185812;28;20029;-63
2022/01/11 08:10:34;;;;;;;43.88;18.25;;;1.50;99.90;;;;;;4181265;28;20048;-63
2022/01/11 08:12:34;;;;;;;36.72;16.60;;;1.50;99.90;;;;;;4186833;28;20497;-63
2022/01/11 08:14:35;;;;;;;38.80;17.70;;;1.60;99.90;;;;;;4188881;28;20066;-63
2022/01/11 08:16:36;;;;;;;41.78;19.80;;;1.60;99.90;;;;;;4185386;28;20484;-63
2022/01/11 08:18:36;;;;;;;42.10;18.10;;;1.50;99.90;;;;;;4183195;28;20037;-63
2022/01/11 08:20:37;;;;;;;43.55;19.27;;;1.60;99.90;;;;;;4163761;28;20038;-63
2022/01/11 08:22:37;;;;;;;41.67;19.15;;;1.60;99.90;;;;;;4184715;28;20034;-63
2022/01/11 08:24:38;;;;;;;48.00;21.88;;;1.60;99.90;;;;;;4181858;28;20033;-63
2022/01/11 08:26:39;;;;;;;44.05;19.83;;;1.60;99.90;;;;;;4177602;28;20033;-65
2022/01/11 08:28:41;;;;;;;36.22;18.40;;;1.60;99.90;;;;;;4190014;28;20394;-63
2022/01/11 08:30:41;;;;;;;40.47;18.83;;;1.60;99.90;;;;;;4179001;28;20045;-63
2022/01/11 08:32:42;;;;;;;35.65;17.08;;;1.60;99.90;;;;;;4182055;28;20525;-63
2022/01/11 08:34:43;;;;;;;46.15;20.00;;;1.70;99.90;;;;;;4185104;28;20040;-63
2022/01/11 08:36:47;;;;;;;40.22;19.05;;;1.70;99.90;;;;;;4180226;28;20431;-63
2022/01/11 08:38:48;;;;;;;40.00;19.63;;;1.70;99.90;;;;;;4179786;28;20395;-63
2022/01/11 08:40:48;;;;;;;47.28;20.65;;;1.60;99.90;;;;;;4180333;28;20112;-63
2022/01/11 08:42:50;;;;;;;44.08;21.00;;;1.60;99.90;;;;;;4181060;28;20406;-64
2022/01/11 08:44:51;;;;;;;46.13;21.10;;;1.70;99.90;;;;;;4182771;28;20044;-64
2022/01/11 08:46:51;;;;;;;46.47;21.65;;;1.60;99.90;;;;;;4178917;28;20464;-63
2022/01/11 08:48:52;;;;;;;49.72;20.88;;;1.50;99.90;;;;;;4180085;28;20097;-64
2022/01/11 08:50:53;;;;;;;45.80;20.42;;;1.50;99.90;;;;;;4181214;28;20139;-63
2022/01/11 08:52:54;;;;;;;42.28;18.45;;;1.50;99.90;;;;;;4181438;28;20133;-63
2022/01/11 08:54:55;;;;;;;44.28;20.45;;;1.60;99.90;;;;;;4182683;28;20422;-63
2022/01/11 08:56:56;;;;;;;48.35;21.15;;;1.60;99.90;;;;;;4184358;28;20064;-63
2022/01/11 08:58:57;;;;;;;50.97;22.05;;;1.70;99.90;;;;;;4164206;28;20045;-63
2022/01/11 09:00:58;;;;;;;54.05;22.63;;;1.70;99.90;;;;;;4182878;28;20040;-63
2022/01/11 09:02:58;;;;;;;49.22;21.77;;;1.70;99.90;;;;;;4181705;28;20103;-63
2022/01/11 09:04:59;;;;;;;49.97;21.27;;;1.70;99.90;;;;;;4183275;28;20039;-63
2022/01/11 09:07:00;;;;;;;50.63;21.77;;;1.70;99.90;;;;;;4183332;28;20041;-64
2022/01/11 09:09:02;;;;;;;52.00;23.77;;;1.70;99.90;;;;;;4183557;28;20062;-64
2022/01/11 09:11:05;;;;;;;46.50;21.33;;;1.60;99.90;;;;;;4166892;28;20029;-63
2022/01/11 09:13:06;;;;;;;54.78;23.80;;;1.70;99.90;;;;;;4186166;28;20550;-63
2022/01/11 09:15:08;;;;;;;50.95;23.27;;;1.70;99.90;;;;;;4182686;28;20059;-64
2022/01/11 09:17:09;;;;;;;50.80;23.77;;;1.70;99.90;;;;;;4182577;28;20039;-63
2022/01/11 09:19:12;;;;;;;48.63;22.95;;;1.60;99.90;;;;;;4179394;28;20559;-63
2022/01/11 09:21:12;;;;;;;53.28;22.80;;;1.50;99.90;;;;;;4180128;28;20025;-63
2022/01/11 09:23:13;;;;;;;53.83;22.92;;;1.50;99.90;;;;;;4186877;28;20056;-63
2022/01/11 09:25:15;;;;;;;45.95;21.27;;;1.50;99.90;;;;;;4181435;28;20045;-63
2022/01/11 09:27:16;;;;;;;52.70;22.58;;;1.50;99.90;;;;;;4181787;28;20040;-67
2022/01/11 09:29:16;;;;;;;48.88;22.08;;;1.50;99.90;;;;;;4183940;28;20064;-64
2022/01/11 09:31:17;;;;;;;48.92;22.02;;;1.50;99.90;;;;;;4185483;28;20037;-64
2022/01/11 09:33:18;;;;;;;49.58;21.70;;;1.50;99.90;;;;;;4183485;28;20123;-64
2022/01/11 09:35:19;;;;;;;49.95;21.35;;;1.50;99.90;;;;;;4181481;28;20172;-63
2022/01/11 09:37:19;;;;;;;48.25;20.95;;;1.60;99.90;;;;;;4178102;28;20052;-63
2022/01/11 09:39:20;;;;;;;52.13;22.55;;;1.60;99.90;;;;;;4180207;28;20132;-63
2022/01/11 09:41:21;;;;;;;49.65;22.10;;;1.60;99.90;;;;;;4179450;28;20037;-64
2022/01/11 09:43:23;;;;;;;54.83;24.45;;;1.60;99.90;;;;;;4182332;28;20075;-63
2022/01/11 09:45:24;;;;;;;75.38;24.00;;;1.50;99.90;;;;;;4180124;28;20044;-63
2022/01/11 09:47:25;;;;;;;54.13;22.88;;;1.50;99.90;;;;;;4180387;28;20113;-63
2022/01/11 09:49:26;;;;;;;52.72;22.20;;;1.50;99.90;;;;;;4183227;28;20048;-63
2022/01/11 09:51:26;;;;;;;51.15;22.65;;;1.50;99.90;;;;;;4180264;28;20398;-63
2022/01/11 09:53:27;;;;;;;47.67;21.08;;;1.50;99.90;;;;;;4182905;28;20068;-63
2022/01/11 09:55:28;;;;;;;43.42;20.67;;;1.50;99.90;;;;;;4182304;28;20068;-63
2022/01/11 09:57:29;;;;;;;50.17;20.98;;;1.50;99.90;;;;;;4178778;28;20491;-63
2022/01/11 09:59:30;;;;;;;45.38;20.92;;;1.50;99.90;;;;;;4181480;28;20041;-63
2022/01/11 10:01:30;;;;;;;48.22;22.00;;;1.60;99.90;;;;;;4182191;28;20131;-63
2022/01/11 10:03:51;;;;;;;53.03;22.58;;;1.60;99.90;;;;;;4185214;28;20033;-63
2022/01/11 10:05:52;;;;;;;52.90;22.45;;;1.70;99.90;;;;;;4178504;28;20041;-63
2022/01/11 10:07:53;;;;;;;50.65;22.85;;;1.70;99.90;;;;;;4177721;28;20048;-63
2022/01/11 10:09:54;;;;;;;53.88;24.00;;;1.60;99.90;;;;;;4186468;28;20032;-63
2022/01/11 10:12:01;;;;;;;49.33;23.10;;;1.60;99.90;;;;;;4179093;28;20045;-63
2022/01/11 10:14:16;;;;;;;53.00;22.38;;;1.60;99.90;;;;;;4185308;28;20036;-63
2022/01/11 10:16:25;;;;;;;45.75;20.35;;;1.60;99.90;;;;;;4180863;28;20040;-66
2022/01/11 10:18:37;;;;;;;52.78;22.70;;;1.60;99.90;;;;;;4179890;28;20044;-63
2022/01/11 10:20:37;;;;;;;47.92;20.60;;;1.60;99.90;;;;;;4178515;28;20029;-63
2022/01/11 10:23:05;;;;;;;47.42;21.67;;;1.70;99.90;;;;;;4184261;28;20044;-62
2022/01/11 10:25:07;;;;;;;56.03;24.40;;;1.60;99.90;;;;;;4179908;28;20064;-64
2022/01/11 10:27:14;;;;;;;57.30;23.52;;;1.70;99.90;;;;;;4182740;28;20037;-62
2022/01/11 10:29:40;;;;;;;54.30;23.83;;;1.70;99.90;;;;;;4184679;28;20040;-63